createdAt,value
2022-09-14T00:01:28.600Z,17.70
2022-09-14T00:03:58.610Z,17.80
2022-09-14T00:06:26.194Z,17.70
2022-09-14T00:08:55.143Z,17.80
2022-09-14T00:11:23.606Z,17.70
2022-09-14T00:13:50.832Z,17.70
2022-09-14T00:16:30.221Z,17.70
2022-09-14T00:19:07.912Z,17.60
2022-09-14T00:21:36.771Z,17.60
2022-09-14T00:24:05.056Z,17.70
2022-09-14T00:26:31.891Z,17.70
2022-09-14T00:29:04.393Z,17.80
2022-09-14T00:31:36.591Z,17.80
2022-09-14T00:34:05.649Z,17.80
2022-09-14T00:36:34.070Z,17.90
2022-09-14T00:39:00.926Z,17.80
2022-09-14T00:41:32.317Z,17.80
2022-09-14T00:44:04.666Z,17.80
2022-09-14T00:46:53.277Z,17.80
2022-09-14T00:49:33.209Z,17.70
2022-09-14T00:52:10.263Z,17.70
2022-09-14T00:54:43.726Z,17.70
2022-09-14T00:57:11.689Z,17.60
2022-09-14T00:59:41.689Z,17.60
2022-09-14T01:02:10.884Z,17.50
2022-09-14T01:04:38.352Z,17.50
2022-09-14T01:07:32.001Z,17.50
2022-09-14T01:10:21.832Z,17.60
2022-09-14T01:13:09.516Z,17.50
2022-09-14T01:15:51.657Z,17.40
2022-09-14T01:18:27.988Z,17.40
2022-09-14T01:21:02.246Z,17.30
2022-09-14T01:23:43.892Z,17.30
2022-09-14T01:26:38.508Z,17.30
2022-09-14T01:29:26.700Z,17.30
2022-09-14T01:32:01.783Z,17.30
2022-09-14T01:34:39.220Z,17.20
2022-09-14T01:37:14.448Z,17.10
2022-09-14T01:39:45.915Z,17.10
2022-09-14T01:42:14.830Z,17.10
2022-09-14T01:44:45.483Z,17.10
2022-09-14T01:47:47.327Z,17.10
2022-09-14T01:50:24.400Z,17.10
2022-09-14T01:53:08.786Z,17.10
2022-09-14T01:55:52.316Z,17.10
2022-09-14T01:58:36.648Z,17.10
2022-09-14T02:01:06.018Z,17.10
2022-09-14T02:03:40.673Z,17.10
2022-09-14T02:06:23.564Z,17.10
2022-09-14T02:08:52.085Z,17.00
2022-09-14T02:11:19.188Z,17.00
2022-09-14T02:13:46.121Z,16.90
2022-09-14T02:16:13.253Z,16.80
2022-09-14T02:18:40.714Z,16.80
2022-09-14T02:21:14.195Z,16.70
2022-09-14T02:23:41.309Z,16.70
2022-09-14T02:26:09.345Z,16.70
2022-09-14T02:28:36.654Z,16.70
2022-09-14T02:31:03.376Z,16.70
2022-09-14T02:33:39.825Z,16.70
2022-09-14T02:36:25.108Z,16.60
2022-09-14T02:39:30.216Z,16.60
2022-09-14T02:42:15.325Z,16.60
2022-09-14T02:44:57.488Z,16.60
2022-09-14T02:47:38.321Z,16.60
2022-09-14T02:50:23.827Z,16.60
2022-09-14T02:53:02.409Z,16.60
2022-09-14T02:55:35.835Z,16.60
2022-09-14T02:58:11.485Z,16.50
2022-09-14T03:00:44.182Z,16.40
2022-09-14T03:03:12.952Z,16.40
2022-09-14T03:05:40.524Z,16.40
2022-09-14T03:08:08.654Z,16.40
2022-09-14T03:10:35.421Z,16.30
2022-09-14T03:13:02.402Z,16.20
2022-09-14T03:15:29.633Z,16.10
2022-09-14T03:17:56.527Z,16.10
2022-09-14T03:20:29.117Z,16.20
2022-09-14T03:22:57.927Z,16.30
2022-09-14T03:25:25.100Z,16.30
2022-09-14T03:27:53.825Z,16.30
2022-09-14T03:30:21.263Z,16.30
2022-09-14T03:32:48.763Z,16.30
2022-09-14T03:35:16.541Z,16.30
2022-09-14T03:37:44.807Z,16.30
2022-09-14T03:40:17.987Z,16.40
2022-09-14T03:42:50.887Z,16.40
2022-09-14T03:45:18.925Z,16.30
2022-09-14T03:47:46.859Z,16.30
2022-09-14T03:50:15.214Z,16.30
2022-09-14T03:52:42.075Z,16.30
2022-09-14T03:55:10.338Z,16.30
2022-09-14T03:57:37.650Z,16.30
2022-09-14T04:00:06.019Z,16.30
2022-09-14T04:02:32.826Z,16.30
2022-09-14T04:04:59.610Z,16.30
2022-09-14T04:07:26.753Z,16.30
2022-09-14T04:09:53.466Z,16.30
2022-09-14T04:12:20.179Z,16.30
2022-09-14T04:14:46.912Z,16.20
2022-09-14T04:17:13.667Z,16.20
2022-09-14T04:19:42.200Z,16.20
2022-09-14T04:22:09.213Z,16.20
2022-09-14T04:24:36.414Z,16.30
2022-09-14T04:27:03.616Z,16.30
2022-09-14T04:29:30.794Z,16.30
2022-09-14T04:31:58.086Z,16.30
2022-09-14T04:34:25.417Z,16.20
2022-09-14T04:36:52.288Z,16.30
2022-09-14T04:39:20.111Z,16.30
2022-09-14T04:41:47.225Z,16.20
2022-09-14T04:44:14.841Z,16.20
2022-09-14T04:46:46.596Z,16.20
2022-09-14T04:49:18.650Z,16.20
2022-09-14T04:51:47.178Z,16.30
2022-09-14T04:54:17.448Z,16.30
2022-09-14T04:56:44.878Z,16.30
2022-09-14T04:59:12.819Z,16.50
2022-09-14T05:01:42.643Z,16.50
2022-09-14T05:04:11.520Z,16.50
2022-09-14T05:06:40.914Z,16.50
2022-09-14T05:09:13.452Z,16.50
2022-09-14T05:11:41.774Z,16.50
2022-09-14T05:14:12.035Z,16.50
2022-09-14T05:16:40.883Z,16.60
2022-09-14T05:19:11.873Z,16.80
2022-09-14T05:21:39.034Z,16.80
2022-09-14T05:24:12.544Z,17.00
2022-09-14T05:26:39.276Z,17.10
2022-09-14T05:29:06.579Z,17.20
2022-09-14T05:31:33.581Z,17.30
2022-09-14T05:34:00.728Z,17.30
2022-09-14T05:36:27.526Z,17.50
2022-09-14T05:38:54.304Z,17.50
2022-09-14T05:41:21.015Z,17.60
2022-09-14T05:43:47.831Z,17.60
2022-09-14T05:46:17.070Z,17.70
2022-09-14T05:48:44.411Z,17.70
2022-09-14T05:51:14.068Z,17.80
2022-09-14T05:53:40.935Z,18.00
2022-09-14T05:56:13.503Z,18.00
2022-09-14T05:58:41.564Z,18.00
2022-09-14T06:01:15.418Z,18.00
2022-09-14T06:03:43.550Z,18.10
2022-09-14T06:06:12.180Z,18.30
2022-09-14T06:08:39.359Z,18.30
2022-09-14T06:11:10.296Z,18.50
2022-09-14T06:13:37.502Z,18.70
2022-09-14T06:16:06.380Z,18.90
2022-09-14T06:18:34.619Z,19.00
2022-09-14T06:21:02.078Z,19.10
2022-09-14T06:23:29.467Z,19.20
2022-09-14T06:25:57.382Z,19.30
2022-09-14T06:28:25.345Z,19.40
2022-09-14T06:30:52.501Z,19.50
2022-09-14T06:33:20.070Z,19.60
2022-09-14T06:36:03.271Z,19.50
2022-09-14T06:38:31.159Z,19.60
2022-09-14T06:41:00.351Z,19.60
2022-09-14T06:43:29.288Z,19.80
2022-09-14T06:45:58.344Z,20.00
2022-09-14T06:48:27.208Z,20.00
2022-09-14T06:50:54.319Z,20.20
2022-09-14T06:53:21.714Z,20.30
2022-09-14T06:55:48.507Z,20.30
2022-09-14T06:58:15.423Z,20.50
2022-09-14T07:00:42.729Z,20.60
2022-09-14T07:03:09.535Z,20.70
2022-09-14T07:05:36.279Z,20.90
2022-09-14T07:08:03.002Z,21.10
2022-09-14T07:10:29.885Z,21.20
2022-09-14T07:12:59.392Z,21.30
2022-09-14T07:15:26.363Z,21.40
2022-09-14T07:17:53.717Z,21.60
2022-09-14T07:20:20.421Z,21.80
2022-09-14T07:22:47.224Z,22.00
2022-09-14T07:25:14.025Z,22.10
2022-09-14T07:27:40.821Z,22.30
2022-09-14T07:30:08.703Z,22.40
2022-09-14T07:32:35.818Z,22.60
2022-09-14T07:35:02.990Z,22.90
2022-09-14T07:37:31.019Z,23.00
2022-09-14T07:39:57.942Z,23.20
2022-09-14T07:42:24.674Z,23.40
2022-09-14T07:44:51.477Z,23.60
2022-09-14T07:47:18.226Z,23.80
2022-09-14T07:49:45.074Z,24.00
2022-09-14T07:52:11.866Z,24.20
2022-09-14T07:54:39.373Z,24.50
2022-09-14T07:57:06.721Z,24.80
2022-09-14T07:59:36.462Z,25.00
2022-09-14T08:02:07.602Z,25.30
2022-09-14T08:04:36.075Z,25.50
2022-09-14T08:07:03.828Z,25.70
2022-09-14T08:09:30.614Z,26.00
2022-09-14T08:11:57.921Z,26.20
2022-09-14T08:14:25.379Z,26.50
2022-09-14T08:16:52.410Z,26.60
2022-09-14T08:19:20.972Z,26.70
2022-09-14T08:21:48.459Z,26.80
2022-09-14T08:24:18.483Z,26.90
2022-09-14T08:26:46.561Z,26.90
2022-09-14T08:29:14.887Z,27.00
2022-09-14T08:31:44.250Z,27.00
2022-09-14T08:34:11.885Z,27.00
2022-09-14T08:36:41.623Z,27.10
2022-09-14T08:39:10.490Z,27.20
2022-09-14T08:41:43.725Z,27.40
2022-09-14T08:44:37.631Z,27.50
2022-09-14T08:47:19.237Z,27.60
2022-09-14T08:49:47.634Z,27.70
2022-09-14T08:52:22.956Z,28.00
2022-09-14T08:54:54.145Z,27.80
2022-09-14T08:58:02.108Z,27.80
2022-09-14T09:00:41.877Z,28.00
2022-09-14T09:03:44.161Z,28.10
2022-09-14T09:06:16.725Z,28.20
2022-09-14T09:08:54.603Z,28.00
2022-09-14T09:11:24.045Z,27.90
2022-09-14T09:13:53.025Z,27.70
2022-09-14T09:16:24.067Z,27.70
2022-09-14T09:19:01.975Z,27.60
2022-09-14T09:21:46.065Z,27.60
2022-09-14T09:24:36.372Z,27.50
2022-09-14T09:27:14.267Z,27.60
2022-09-14T09:29:42.088Z,27.70
2022-09-14T09:32:20.360Z,27.70
2022-09-14T09:34:47.655Z,27.70
2022-09-14T09:37:21.361Z,27.90
2022-09-14T09:39:49.411Z,27.80
2022-09-14T09:42:24.131Z,27.90
2022-09-14T09:45:03.665Z,28.20
2022-09-14T09:47:42.452Z,28.30
2022-09-14T09:50:19.932Z,28.50
2022-09-14T09:52:56.839Z,28.40
2022-09-14T09:55:27.444Z,28.40
2022-09-14T09:57:54.884Z,28.50
2022-09-14T10:00:23.420Z,28.60
2022-09-14T10:02:50.846Z,28.90
2022-09-14T10:05:17.541Z,29.00
2022-09-14T10:07:49.969Z,29.30
2022-09-14T10:10:20.530Z,29.30
2022-09-14T10:12:50.876Z,29.50
2022-09-14T10:15:25.847Z,29.60
2022-09-14T10:18:14.547Z,29.40
2022-09-14T10:20:51.869Z,29.30
2022-09-14T10:23:18.573Z,29.40
2022-09-14T10:25:53.634Z,29.80
2022-09-14T10:28:30.901Z,29.90
2022-09-14T10:31:09.076Z,30.40
2022-09-14T10:33:36.069Z,31.10
2022-09-14T10:36:11.307Z,31.50
2022-09-14T10:38:58.481Z,31.60
2022-09-14T10:41:49.380Z,31.30
2022-09-14T10:44:22.586Z,30.80
2022-09-14T10:47:26.863Z,30.20
2022-09-14T10:50:05.711Z,29.80
2022-09-14T10:52:55.793Z,29.70
2022-09-14T10:55:31.950Z,29.70
2022-09-14T10:58:21.284Z,29.50
2022-09-14T11:01:08.499Z,29.30
2022-09-14T11:03:53.582Z,29.30
2022-09-14T11:06:23.288Z,29.10
2022-09-14T11:09:07.704Z,29.20
2022-09-14T11:12:12.662Z,29.40
2022-09-14T11:15:01.055Z,29.60
2022-09-14T11:17:34.292Z,29.60
2022-09-14T11:20:30.330Z,29.60
2022-09-14T11:23:18.922Z,30.30
2022-09-14T11:26:04.897Z,30.60
2022-09-14T11:28:38.906Z,30.50
2022-09-14T11:31:09.530Z,30.60
2022-09-14T11:33:49.845Z,30.80
2022-09-14T11:36:24.008Z,30.80
2022-09-14T11:39:06.008Z,30.80
2022-09-14T11:41:48.484Z,31.00
2022-09-14T11:44:24.638Z,30.90
2022-09-14T11:47:01.965Z,30.70
2022-09-14T11:50:14.044Z,30.40
2022-09-14T11:52:40.752Z,30.10
2022-09-14T11:55:16.444Z,30.10
2022-09-14T11:57:46.214Z,30.00
2022-09-14T12:00:44.093Z,30.30
2022-09-14T12:03:22.830Z,30.90
2022-09-14T12:05:50.285Z,31.70
2022-09-14T12:08:35.129Z,32.90
2022-09-14T12:11:07.295Z,33.70
2022-09-14T12:13:35.883Z,35.30
2022-09-14T12:16:08.574Z,36.30
2022-09-14T12:18:40.089Z,38.10
2022-09-14T12:21:26.481Z,39.10
2022-09-14T12:23:57.726Z,39.50
2022-09-14T12:26:31.475Z,40.40
2022-09-14T12:29:06.843Z,40.50
2022-09-14T12:31:47.449Z,40.40
2022-09-14T12:34:22.671Z,41.00
2022-09-14T12:36:49.400Z,41.70
2022-09-14T12:39:25.043Z,42.80
2022-09-14T12:41:51.781Z,43.00
2022-09-14T12:44:43.339Z,43.50
2022-09-14T12:47:25.518Z,42.70
2022-09-14T12:50:06.086Z,41.60
2022-09-14T12:52:59.705Z,41.10
2022-09-14T12:55:50.917Z,40.20
2022-09-14T12:59:02.560Z,38.40
2022-09-14T13:01:43.720Z,36.80
2022-09-14T13:04:21.486Z,36.90
2022-09-14T13:06:49.064Z,36.60
2022-09-14T13:09:24.813Z,35.20
2022-09-14T13:12:09.956Z,34.50
2022-09-14T13:14:51.252Z,34.10
2022-09-14T13:17:19.048Z,33.80
2022-09-14T13:19:58.345Z,33.40
2022-09-14T13:22:29.356Z,33.60
2022-09-14T13:24:59.126Z,33.80
2022-09-14T13:27:37.960Z,34.10
2022-09-14T13:30:06.455Z,34.20
2022-09-14T13:32:42.699Z,34.40
2022-09-14T13:35:18.600Z,34.20
2022-09-14T13:37:48.293Z,33.70
2022-09-14T13:40:15.542Z,33.80
2022-09-14T13:42:42.673Z,33.30
2022-09-14T13:45:13.491Z,32.90
2022-09-14T13:47:40.419Z,32.40
2022-09-14T13:50:08.173Z,32.60
2022-09-14T13:53:00.652Z,32.70
2022-09-14T13:55:27.893Z,33.10
2022-09-14T13:58:09.342Z,33.30
2022-09-14T14:00:56.462Z,33.60
2022-09-14T14:03:33.347Z,33.00
2022-09-14T14:06:03.668Z,32.50
2022-09-14T14:08:38.485Z,32.00
2022-09-14T14:11:07.828Z,31.70
2022-09-14T14:13:37.395Z,31.40
2022-09-14T14:16:22.097Z,31.70
2022-09-14T14:18:55.930Z,32.40
2022-09-14T14:21:22.851Z,33.90
2022-09-14T14:24:12.064Z,34.40
2022-09-14T14:26:40.162Z,33.90
2022-09-14T14:29:09.342Z,33.50
2022-09-14T14:31:36.540Z,33.10
2022-09-14T14:34:21.799Z,33.10
2022-09-14T14:36:50.117Z,33.10
2022-09-14T14:39:19.473Z,33.40
2022-09-14T14:41:47.408Z,34.20
2022-09-14T14:44:28.273Z,35.60
2022-09-14T14:46:56.246Z,36.60
2022-09-14T14:49:26.579Z,37.00
2022-09-14T14:51:53.736Z,37.10
2022-09-14T14:54:20.602Z,37.10
2022-09-14T14:56:49.756Z,37.60
2022-09-14T14:59:16.440Z,37.50
2022-09-14T15:01:43.126Z,38.10
2022-09-14T15:04:09.802Z,37.60
2022-09-14T15:06:36.571Z,36.50
2022-09-14T15:09:09.538Z,35.80
2022-09-14T15:11:41.035Z,35.70
2022-09-14T15:14:16.399Z,35.80
2022-09-14T15:16:43.612Z,35.60
2022-09-14T15:19:11.141Z,36.00
2022-09-14T15:21:39.271Z,35.80
2022-09-14T15:24:06.580Z,36.30
2022-09-14T15:26:33.499Z,36.20
2022-09-14T15:29:00.694Z,36.10
2022-09-14T15:31:28.254Z,34.40
2022-09-14T15:33:55.504Z,34.50
2022-09-14T15:36:40.863Z,34.00
2022-09-14T15:39:11.479Z,33.20
2022-09-14T15:41:38.563Z,32.30
2022-09-14T15:44:06.057Z,30.60
2022-09-14T15:46:32.970Z,30.60
2022-09-14T15:49:03.792Z,30.00
2022-09-14T15:51:33.095Z,30.10
2022-09-14T15:54:03.791Z,30.00
2022-09-14T15:56:30.797Z,29.80
2022-09-14T15:58:59.595Z,29.40
2022-09-14T16:01:27.197Z,28.90
2022-09-14T16:04:08.382Z,28.60
2022-09-14T16:06:38.572Z,28.40
2022-09-14T16:09:07.978Z,28.10
2022-09-14T16:11:36.327Z,27.90
2022-09-14T16:14:05.519Z,27.60
2022-09-14T16:16:33.288Z,27.60
2022-09-14T16:19:05.762Z,27.50
2022-09-14T16:21:32.558Z,27.40
2022-09-14T16:24:01.388Z,27.30
2022-09-14T16:26:35.156Z,27.30
2022-09-14T16:29:02.196Z,27.20
2022-09-14T16:31:32.773Z,27.20
2022-09-14T16:34:02.366Z,27.10
2022-09-14T16:36:33.197Z,27.10
2022-09-14T16:39:03.187Z,27.00
2022-09-14T16:41:31.120Z,27.00
2022-09-14T16:43:59.229Z,27.00
2022-09-14T16:46:27.410Z,26.90
2022-09-14T16:48:55.207Z,26.90
2022-09-14T16:51:24.287Z,26.90
2022-09-14T16:53:52.100Z,26.80
2022-09-14T16:56:24.305Z,26.80
2022-09-14T16:58:53.432Z,26.80
2022-09-14T17:01:31.110Z,26.80
2022-09-14T17:04:00.765Z,26.70
2022-09-14T17:06:29.732Z,26.70
2022-09-14T17:09:01.975Z,26.60
2022-09-14T17:11:30.692Z,26.70
2022-09-14T17:13:57.738Z,26.70
2022-09-14T17:16:26.942Z,26.60
2022-09-14T17:18:58.000Z,26.70
2022-09-14T17:21:28.420Z,26.70
2022-09-14T17:23:55.443Z,26.60
2022-09-14T17:26:23.149Z,26.60
2022-09-14T17:28:52.017Z,26.60
2022-09-14T17:31:22.526Z,26.60
2022-09-14T17:33:49.674Z,26.60
2022-09-14T17:36:16.917Z,26.70
2022-09-14T17:38:44.361Z,26.70
2022-09-14T17:41:11.303Z,26.70
2022-09-14T17:43:39.904Z,26.70
2022-09-14T17:46:09.520Z,26.70
2022-09-14T17:48:39.051Z,26.60
2022-09-14T17:51:07.558Z,26.60
2022-09-14T17:53:38.993Z,26.60
2022-09-14T17:56:08.064Z,26.50
2022-09-14T17:58:35.925Z,26.50
2022-09-14T18:01:09.751Z,26.40
2022-09-14T18:03:37.914Z,26.40
2022-09-14T18:06:07.260Z,26.40
2022-09-14T18:08:35.152Z,26.30
2022-09-14T18:11:29.218Z,26.30
2022-09-14T18:13:56.070Z,26.20
2022-09-14T18:16:23.841Z,26.20
2022-09-14T18:18:50.724Z,26.10
2022-09-14T18:21:18.686Z,26.00
2022-09-14T18:23:50.090Z,26.00
2022-09-14T18:26:17.655Z,26.00
2022-09-14T18:28:44.748Z,26.00
2022-09-14T18:31:15.926Z,25.90
2022-09-14T18:33:55.112Z,26.00
2022-09-14T18:36:22.616Z,26.00
2022-09-14T18:38:51.437Z,26.10
2022-09-14T18:41:20.700Z,26.00
2022-09-14T18:43:50.087Z,26.00
2022-09-14T18:46:18.254Z,26.00
2022-09-14T18:48:46.619Z,26.00
2022-09-14T18:51:14.306Z,26.00
2022-09-14T18:53:41.919Z,26.10
2022-09-14T18:56:13.877Z,26.00
2022-09-14T18:58:46.414Z,26.00
2022-09-14T19:01:14.326Z,26.10
2022-09-14T19:03:42.602Z,26.10
2022-09-14T19:06:12.784Z,26.20
2022-09-14T19:08:40.360Z,26.20
2022-09-14T19:11:09.667Z,26.20
2022-09-14T19:13:37.091Z,26.20
2022-09-14T19:16:08.587Z,26.20
2022-09-14T19:18:36.251Z,26.10
2022-09-14T19:21:15.097Z,26.00
2022-09-14T19:23:43.152Z,25.80
2022-09-14T19:26:14.989Z,25.80
2022-09-14T19:28:42.381Z,25.70
2022-09-14T19:31:19.482Z,25.70
2022-09-14T19:33:46.448Z,25.60
2022-09-14T19:36:21.929Z,25.50
2022-09-14T19:38:50.702Z,25.60
2022-09-14T19:41:18.655Z,25.50
2022-09-14T19:43:45.371Z,25.50
2022-09-14T19:46:18.212Z,25.50
2022-09-14T19:48:45.878Z,25.50
2022-09-14T19:51:18.525Z,25.50
2022-09-14T19:53:49.899Z,25.50
2022-09-14T19:56:19.450Z,25.40
2022-09-14T19:58:48.701Z,25.40
2022-09-14T20:01:18.413Z,25.40
2022-09-14T20:03:46.181Z,25.40
2022-09-14T20:06:23.449Z,25.40
2022-09-14T20:08:55.859Z,25.30
2022-09-14T20:11:24.930Z,25.30
2022-09-14T20:13:55.270Z,25.30
2022-09-14T20:16:28.282Z,25.20
2022-09-14T20:18:56.513Z,25.30
2022-09-14T20:21:25.042Z,25.30
2022-09-14T20:24:16.180Z,25.30
2022-09-14T20:26:44.609Z,25.20
2022-09-14T20:29:11.742Z,25.30
2022-09-14T20:31:38.668Z,25.20
2022-09-14T20:34:06.064Z,25.10
2022-09-14T20:36:33.693Z,25.00
2022-09-14T20:39:00.901Z,25.10
2022-09-14T20:41:30.868Z,25.10
2022-09-14T20:43:57.878Z,25.20
2022-09-14T20:46:27.113Z,25.30
2022-09-14T20:48:54.666Z,25.50
2022-09-14T20:51:22.895Z,25.50
2022-09-14T20:53:50.156Z,25.60
2022-09-14T20:56:24.177Z,25.60
2022-09-14T20:59:07.239Z,25.70
2022-09-14T21:01:36.599Z,25.80
2022-09-14T21:04:15.960Z,25.90
2022-09-14T21:06:45.663Z,25.90
2022-09-14T21:09:14.278Z,25.90
2022-09-14T21:11:42.139Z,26.00
2022-09-14T21:14:09.253Z,26.00
2022-09-14T21:16:42.634Z,26.00
2022-09-14T21:19:19.594Z,26.00
2022-09-14T21:21:47.751Z,26.00
2022-09-14T21:24:16.387Z,26.10
2022-09-14T21:26:44.589Z,26.10
2022-09-14T21:29:20.169Z,26.00
2022-09-14T21:31:48.687Z,26.00
2022-09-14T21:34:16.808Z,26.00
2022-09-14T21:36:45.827Z,26.00
2022-09-14T21:39:19.210Z,26.00
2022-09-14T21:41:46.318Z,26.00
2022-09-14T21:44:14.148Z,26.00
2022-09-14T21:46:41.452Z,26.00
2022-09-14T21:49:14.227Z,26.00
2022-09-14T21:51:41.527Z,26.10
2022-09-14T21:54:12.760Z,26.20
2022-09-14T21:56:41.610Z,26.20
2022-09-14T21:59:21.429Z,26.30
2022-09-14T22:01:48.823Z,26.40
2022-09-14T22:04:19.290Z,26.60
2022-09-14T22:06:46.403Z,26.50
2022-09-14T22:09:14.865Z,26.40
2022-09-14T22:11:42.224Z,26.40
2022-09-14T22:14:15.238Z,26.40
2022-09-14T22:16:42.814Z,26.40
2022-09-14T22:19:26.664Z,26.30
2022-09-14T22:21:54.430Z,26.30
2022-09-14T22:24:26.807Z,26.20
2022-09-14T22:26:54.676Z,26.20
2022-09-14T22:29:21.748Z,26.10
2022-09-14T22:31:49.159Z,26.10
2022-09-14T22:34:16.682Z,26.10
2022-09-14T22:36:43.725Z,26.00
2022-09-14T22:39:10.740Z,26.10
2022-09-14T22:41:38.732Z,26.00
2022-09-14T22:44:06.367Z,25.90
2022-09-14T22:46:33.574Z,25.90
2022-09-14T22:49:00.331Z,25.80
2022-09-14T22:51:28.766Z,25.70
2022-09-14T22:53:56.668Z,25.60
2022-09-14T22:56:35.359Z,25.50
2022-09-14T22:59:04.937Z,25.40
2022-09-14T23:01:35.129Z,25.30
2022-09-14T23:04:09.058Z,25.20
2022-09-14T23:06:40.278Z,25.10
2022-09-14T23:09:10.133Z,25.10
2022-09-14T23:11:37.680Z,25.00
2022-09-14T23:14:05.010Z,24.90
2022-09-14T23:16:32.201Z,24.80
2022-09-14T23:19:01.470Z,24.80
2022-09-14T23:21:29.828Z,24.60
2022-09-14T23:23:59.701Z,24.60
2022-09-14T23:26:27.563Z,24.60
2022-09-14T23:28:56.793Z,24.60
2022-09-14T23:31:23.914Z,24.60
2022-09-14T23:33:52.571Z,24.50
2022-09-14T23:36:20.611Z,24.50
2022-09-14T23:38:48.434Z,24.50
2022-09-14T23:41:16.541Z,24.50
2022-09-14T23:43:43.580Z,24.50
2022-09-14T23:46:11.067Z,24.50
2022-09-14T23:48:38.181Z,24.40
2022-09-14T23:51:07.293Z,24.30
2022-09-14T23:53:35.135Z,24.20
2022-09-14T23:56:02.831Z,24.20
2022-09-14T23:58:29.633Z,24.10
